createdAt,value
2019-04-22T00:01:32.647Z,9.30
2019-04-22T00:04:08.022Z,11.90
2019-04-22T00:06:57.493Z,9.70
2019-04-22T00:09:37.050Z,9.70
2019-04-22T00:12:00.408Z,8.37
2019-04-22T00:14:24.534Z,10.33
2019-04-22T00:17:07.007Z,12.57
2019-04-22T00:19:36.088Z,7.27
2019-04-22T00:22:13.920Z,7.27
2019-04-22T00:24:30.679Z,7.63
2019-04-22T00:27:05.187Z,7.37
2019-04-22T00:29:50.093Z,6.60
2019-04-22T00:32:28.333Z,6.33
2019-04-22T00:34:59.332Z,6.57
2019-04-22T00:37:38.612Z,8.50
2019-04-22T00:40:12.952Z,7.73
2019-04-22T00:42:36.361Z,6.97
2019-04-22T00:45:07.966Z,6.20
2019-04-22T00:52:38.865Z,7.37
2019-04-22T00:55:15.219Z,8.10
2019-04-22T00:57:42.506Z,7.17
2019-04-22T01:00:13.288Z,5.83
2019-04-22T01:02:57.426Z,6.20
2019-04-22T01:05:15.146Z,6.50
2019-04-22T01:07:44.782Z,10.50
2019-04-22T01:10:20.307Z,10.03
2019-04-22T01:12:45.585Z,8.80
2019-04-22T01:15:17.451Z,8.53
2019-04-22T01:17:44.987Z,7.67
2019-04-22T01:20:41.091Z,6.40
2019-04-22T01:22:46.078Z,6.20
2019-04-22T01:25:14.667Z,6.57
2019-04-22T01:27:46.336Z,6.10
2019-04-22T01:30:09.683Z,6.60
2019-04-22T01:32:38.449Z,7.03
2019-04-22T01:35:17.999Z,7.10
2019-04-22T01:37:48.444Z,5.63
2019-04-22T01:40:31.771Z,6.30
2019-04-22T01:43:07.331Z,8.80
2019-04-22T01:48:02.873Z,6.93
2019-04-22T01:50:41.015Z,7.03
2019-04-22T01:55:38.924Z,6.83
2019-04-22T01:58:09.469Z,7.07
2019-04-22T02:00:39.967Z,7.93
2019-04-22T02:03:12.492Z,8.17
2019-04-22T02:05:46.882Z,6.77
2019-04-22T02:08:25.125Z,9.03
2019-04-22T02:10:50.834Z,8.43
2019-04-22T02:13:15.200Z,8.03
2019-04-22T02:15:50.547Z,10.67
2019-04-22T02:21:03.311Z,7.80
2019-04-22T02:26:15.581Z,7.27
2019-04-22T02:28:42.550Z,7.23
2019-04-22T02:44:10.212Z,7.43
2019-04-22T02:46:40.235Z,7.67
2019-04-22T02:59:02.398Z,6.53
2019-04-22T03:01:31.342Z,6.00
2019-04-22T03:04:06.715Z,6.67
2019-04-22T03:11:47.641Z,9.27
2019-04-22T03:14:01.338Z,8.67
2019-04-22T03:16:33.177Z,7.00
2019-04-22T03:19:02.477Z,8.70
2019-04-22T03:21:31.316Z,7.00
2019-04-22T03:29:04.652Z,6.40
2019-04-22T03:39:38.483Z,9.63
2019-04-22T03:42:05.650Z,5.80
2019-04-22T03:49:37.171Z,6.57
2019-04-22T03:52:10.734Z,7.50
2019-04-22T03:54:39.540Z,6.03
2019-04-22T03:59:48.046Z,6.60
2019-04-22T04:04:37.170Z,7.60
2019-04-22T04:09:46.408Z,6.13
2019-04-22T04:12:25.000Z,8.57
2019-04-22T04:17:15.774Z,6.23
2019-04-22T04:19:56.361Z,8.07
2019-04-22T04:22:21.386Z,7.67
2019-04-22T04:27:30.939Z,6.73
2019-04-22T04:30:02.574Z,7.40
2019-04-22T04:35:03.182Z,6.50
2019-04-22T04:40:05.168Z,5.83
2019-04-22T04:42:43.525Z,6.23
2019-04-22T04:47:38.884Z,5.80
2019-04-22T04:49:56.951Z,5.50
2019-04-22T04:52:42.420Z,5.93
2019-04-22T04:55:12.283Z,6.97
2019-04-22T04:57:33.786Z,7.57
2019-04-22T05:00:34.953Z,6.07
2019-04-22T05:02:41.082Z,5.67
2019-04-22T05:07:36.073Z,7.00
2019-04-22T05:10:22.121Z,6.27
2019-04-22T05:12:45.733Z,5.87
2019-04-22T05:15:08.010Z,6.90
2019-04-22T05:17:37.418Z,5.80
2019-04-22T05:20:09.041Z,6.10
2019-04-22T05:22:34.071Z,6.03
2019-04-22T05:25:05.941Z,7.53
2019-04-22T05:27:34.368Z,8.13
2019-04-22T05:30:21.044Z,5.70
2019-04-22T05:32:37.290Z,5.77
2019-04-22T05:35:09.598Z,8.97
2019-04-22T05:37:37.215Z,7.17
2019-04-22T05:40:16.408Z,5.03
2019-04-22T05:42:31.060Z,5.40
2019-04-22T05:45:13.296Z,5.73
2019-04-22T05:47:43.921Z,6.50
2019-04-22T05:50:07.877Z,5.50
2019-04-22T05:52:49.799Z,5.13
2019-04-22T05:57:48.543Z,5.63
2019-04-22T06:00:23.097Z,5.60
2019-04-22T06:02:52.937Z,5.07
2019-04-22T06:05:16.906Z,4.47
2019-04-22T06:07:52.748Z,4.63
2019-04-22T06:10:27.343Z,4.47
2019-04-22T06:12:49.202Z,4.50
2019-04-22T06:15:31.699Z,4.80
2019-04-22T06:18:09.332Z,5.80
2019-04-22T06:20:39.784Z,4.80
2019-04-22T06:25:49.534Z,4.93
2019-04-22T06:28:16.138Z,5.10
2019-04-22T06:35:43.604Z,5.50
2019-04-22T06:40:46.812Z,5.00
2019-04-22T06:43:20.103Z,4.57
2019-04-22T06:45:41.604Z,5.13
2019-04-22T06:48:19.114Z,5.07
2019-04-22T06:51:08.096Z,5.20
2019-04-22T06:53:17.465Z,5.67
2019-04-22T06:55:45.946Z,5.33
2019-04-22T06:58:16.684Z,5.63
2019-04-22T07:00:44.665Z,5.03
2019-04-22T07:03:37.981Z,4.90
2019-04-22T07:05:52.010Z,7.23
2019-04-22T07:09:00.812Z,4.93
2019-04-22T07:10:50.784Z,6.07
2019-04-22T07:13:27.282Z,5.87
2019-04-22T07:18:33.017Z,4.87
2019-04-22T07:20:57.849Z,6.13
2019-04-22T07:23:31.507Z,4.87
2019-04-22T07:25:58.666Z,7.03
2019-04-22T07:28:22.979Z,4.20
2019-04-22T07:31:00.588Z,5.57
2019-04-22T07:33:34.166Z,6.23
2019-04-22T07:36:25.766Z,5.63
2019-04-22T07:40:59.305Z,4.80
2019-04-22T07:46:00.512Z,4.43
2019-04-22T07:48:42.778Z,4.97
2019-04-22T07:51:07.737Z,4.27
2019-04-22T07:53:33.947Z,4.63
2019-04-22T07:56:04.916Z,4.43
2019-04-22T07:58:36.087Z,7.87
2019-04-22T08:01:18.467Z,5.93
2019-04-22T08:03:51.655Z,5.30
2019-04-22T08:06:12.352Z,5.37
2019-04-22T08:08:37.303Z,5.73
2019-04-22T08:11:21.630Z,4.67
2019-04-22T08:13:41.081Z,6.73
2019-04-22T08:16:10.331Z,7.67
2019-04-22T08:18:39.566Z,6.77
2019-04-22T08:21:11.589Z,6.03
2019-04-22T08:24:02.770Z,5.30
2019-04-22T08:26:19.364Z,4.53
2019-04-22T08:31:20.347Z,5.10
2019-04-22T08:33:46.575Z,7.20
2019-04-22T08:38:52.876Z,5.80
2019-04-22T08:46:35.189Z,7.47
2019-04-22T08:48:54.251Z,5.17
2019-04-22T08:51:25.275Z,4.67
2019-04-22T08:53:59.840Z,6.13
2019-04-22T08:56:35.196Z,6.70
2019-04-22T08:59:07.076Z,5.17
2019-04-22T09:01:27.010Z,5.10
2019-04-22T09:04:02.410Z,5.57
2019-04-22T09:09:06.166Z,5.27
2019-04-22T09:14:13.969Z,4.87
2019-04-22T09:16:46.582Z,4.07
2019-04-22T09:21:38.920Z,6.73
2019-04-22T09:24:10.618Z,4.00
2019-04-22T09:26:43.621Z,5.43
2019-04-22T09:29:20.765Z,5.03
2019-04-22T09:31:50.315Z,5.97
2019-04-22T09:34:14.038Z,4.77
2019-04-22T09:36:50.234Z,5.83
2019-04-22T09:39:27.670Z,4.50
2019-04-22T09:41:55.416Z,5.13
2019-04-22T09:44:28.709Z,5.03
2019-04-22T09:46:52.299Z,6.43
2019-04-22T09:49:19.043Z,6.53
2019-04-22T09:51:58.197Z,6.83
2019-04-22T09:54:31.280Z,6.07
2019-04-22T09:56:55.007Z,6.27
2019-04-22T09:59:27.162Z,5.47
2019-04-22T10:02:13.210Z,7.60
2019-04-22T10:04:24.925Z,6.57
2019-04-22T10:06:54.033Z,5.47
2019-04-22T10:12:02.728Z,4.50
2019-04-22T10:14:30.925Z,5.93
2019-04-22T10:17:04.638Z,5.87
2019-04-22T10:19:39.386Z,5.97
2019-04-22T10:22:08.541Z,9.40
2019-04-22T10:24:37.010Z,8.03
2019-04-22T10:27:02.151Z,5.80
2019-04-22T10:29:41.679Z,7.00
2019-04-22T10:32:06.786Z,5.50
2019-04-22T10:34:26.940Z,5.20
2019-04-22T10:36:51.943Z,5.13
2019-04-22T10:39:18.283Z,6.00
2019-04-22T10:41:48.651Z,8.70
2019-04-22T10:44:19.106Z,6.30
2019-04-22T10:46:49.643Z,12.00
2019-04-22T10:49:20.220Z,7.20
2019-04-22T10:51:50.452Z,5.17
2019-04-22T10:54:19.823Z,6.33
2019-04-22T10:56:48.894Z,7.97
2019-04-22T10:59:18.657Z,7.07
2019-04-22T11:01:48.727Z,6.20
2019-04-22T11:04:19.349Z,8.40
2019-04-22T11:06:55.998Z,6.60
2019-04-22T11:09:21.261Z,6.90
2019-04-22T11:11:59.434Z,5.97
2019-04-22T11:14:23.089Z,5.50
2019-04-22T11:16:53.352Z,7.57
2019-04-22T11:19:23.555Z,7.23
2019-04-22T11:22:05.149Z,4.57
2019-04-22T11:24:23.206Z,5.00
2019-04-22T11:26:52.752Z,5.47
2019-04-22T11:29:23.817Z,10.30
2019-04-22T11:31:54.534Z,5.27
2019-04-22T11:34:24.904Z,4.27
2019-04-22T11:36:54.937Z,4.17
2019-04-22T11:39:24.130Z,5.60
2019-04-22T11:41:54.321Z,3.93
2019-04-22T11:44:23.578Z,3.87
2019-04-22T11:46:53.605Z,5.70
2019-04-22T11:49:23.712Z,4.10
2019-04-22T11:51:54.231Z,4.23
2019-04-22T11:54:25.022Z,5.83
2019-04-22T11:56:54.850Z,4.97
2019-04-22T11:59:24.906Z,3.30
2019-04-22T12:01:55.095Z,2.97
2019-04-22T12:04:25.563Z,3.93
2019-04-22T12:06:55.899Z,3.03
2019-04-22T12:09:25.740Z,2.83
2019-04-22T12:11:55.963Z,2.63
2019-04-22T12:14:25.708Z,2.70
2019-04-22T12:16:55.330Z,3.10
2019-04-22T12:19:25.217Z,2.83
2019-04-22T12:21:55.167Z,2.80
2019-04-22T12:24:25.196Z,3.70
2019-04-22T12:26:55.923Z,2.47
2019-04-22T12:29:25.130Z,4.80
2019-04-22T12:31:55.276Z,2.77
2019-04-22T12:34:25.775Z,3.37
2019-04-22T12:36:56.311Z,2.00
2019-04-22T12:39:25.528Z,2.67
2019-04-22T12:41:54.489Z,3.03
2019-04-22T12:44:24.429Z,2.13
2019-04-22T12:46:54.518Z,2.30
2019-04-22T12:49:23.587Z,2.20
2019-04-22T12:51:52.620Z,2.67
2019-04-22T12:54:21.764Z,2.30
2019-04-22T12:56:51.406Z,2.67
2019-04-22T12:59:21.479Z,2.90
2019-04-22T13:01:51.164Z,3.73
2019-04-22T13:04:23.161Z,2.10
2019-04-22T13:06:50.954Z,2.93
2019-04-22T13:09:21.190Z,4.07
2019-04-22T13:11:51.025Z,2.47
2019-04-22T13:14:21.180Z,2.50
2019-04-22T13:16:51.224Z,2.23
2019-04-22T13:19:21.468Z,4.97
2019-04-22T13:21:51.052Z,3.03
2019-04-22T13:24:21.669Z,16.67
2019-04-22T13:26:52.842Z,36.17
2019-04-22T13:29:23.263Z,15.83
2019-04-22T13:31:53.170Z,7.63
2019-04-22T13:34:30.438Z,3.73
2019-04-22T13:36:52.989Z,6.50
2019-04-22T13:39:22.858Z,9.43
2019-04-22T13:41:57.656Z,6.60
2019-04-22T13:44:23.057Z,9.57
2019-04-22T13:47:10.387Z,5.17
2019-04-22T13:49:59.712Z,2.03
2019-04-22T13:52:35.172Z,3.17
2019-04-22T13:54:57.818Z,1.97
2019-04-22T13:57:09.095Z,4.20
2019-04-22T13:59:35.938Z,2.40
2019-04-22T14:02:01.018Z,2.43
2019-04-22T14:04:32.667Z,2.00
2019-04-22T14:07:02.857Z,2.00
2019-04-22T14:09:33.917Z,2.23
2019-04-22T14:12:05.733Z,3.07
2019-04-22T14:14:33.770Z,1.83
2019-04-22T14:17:03.016Z,2.90
2019-04-22T14:19:32.348Z,3.90
2019-04-22T14:22:01.995Z,2.73
2019-04-22T14:24:31.108Z,4.27
2019-04-22T14:27:15.767Z,2.30
2019-04-22T14:29:31.501Z,2.27
2019-04-22T14:32:07.561Z,2.47
2019-04-22T14:34:32.133Z,4.40
2019-04-22T14:37:03.581Z,2.90
2019-04-22T14:39:33.782Z,3.40
2019-04-22T14:42:27.189Z,2.57
2019-04-22T14:47:25.973Z,2.30
2019-04-22T14:50:00.482Z,2.50
2019-04-22T14:52:28.480Z,2.67
2019-04-22T14:54:49.471Z,3.70
2019-04-22T14:57:07.749Z,2.60
2019-04-22T14:59:37.775Z,2.37
2019-04-22T15:02:07.589Z,3.13
2019-04-22T15:04:37.320Z,3.30
2019-04-22T15:07:07.335Z,3.43
2019-04-22T15:09:37.802Z,2.97
2019-04-22T15:12:16.496Z,3.20
2019-04-22T15:14:39.494Z,5.53
2019-04-22T15:17:22.854Z,3.47
2019-04-22T15:19:56.100Z,3.60
2019-04-22T15:22:26.300Z,4.23
2019-04-22T15:24:56.576Z,2.90
2019-04-22T15:27:29.170Z,3.30
2019-04-22T15:29:57.065Z,3.97
2019-04-22T15:32:27.285Z,4.03
2019-04-22T15:34:57.316Z,4.40
2019-04-22T15:37:28.050Z,2.47
2019-04-22T15:39:58.462Z,4.70
2019-04-22T15:42:30.519Z,4.07
2019-04-22T15:44:58.186Z,4.03
2019-04-22T15:47:27.170Z,3.63
2019-04-22T15:49:56.197Z,3.87
2019-04-22T15:52:33.533Z,2.70
2019-04-22T15:54:56.373Z,3.50
2019-04-22T15:57:26.558Z,4.27
2019-04-22T16:00:10.648Z,2.60
2019-04-22T16:02:27.828Z,3.50
2019-04-22T16:04:56.934Z,3.43
2019-04-22T16:07:27.541Z,2.50
2019-04-22T16:09:57.516Z,2.60
2019-04-22T16:12:32.660Z,3.20
2019-04-22T16:14:59.316Z,2.93
2019-04-22T16:17:28.765Z,2.40
2019-04-22T16:19:59.324Z,2.60
2019-04-22T16:22:30.582Z,2.97
2019-04-22T16:25:02.387Z,3.83
2019-04-22T16:27:32.146Z,6.90
2019-04-22T16:30:03.533Z,2.60
2019-04-22T16:32:33.869Z,2.83
2019-04-22T16:35:04.289Z,3.30
2019-04-22T16:37:34.768Z,3.10
2019-04-22T16:40:05.137Z,5.13
2019-04-22T16:42:42.807Z,3.10
2019-04-22T16:45:07.575Z,4.07
2019-04-22T16:47:37.434Z,5.77
2019-04-22T16:50:08.139Z,6.00
2019-04-22T16:52:37.139Z,6.27
2019-04-22T16:55:08.745Z,3.97
2019-04-22T16:57:37.916Z,4.00
2019-04-22T17:00:11.124Z,3.03
2019-04-22T17:02:50.254Z,3.87
2019-04-22T17:05:33.753Z,6.40
2019-04-22T17:08:02.841Z,4.53
2019-04-22T17:10:31.840Z,5.30
2019-04-22T17:13:05.836Z,4.50
2019-04-22T17:15:31.507Z,6.20
2019-04-22T17:18:01.303Z,2.67
2019-04-22T17:20:31.227Z,3.90
2019-04-22T17:23:02.045Z,2.63
2019-04-22T17:25:32.095Z,3.03
2019-04-22T17:28:01.737Z,5.27
2019-04-22T17:30:31.043Z,4.13
2019-04-22T17:33:00.897Z,3.03
2019-04-22T17:35:31.589Z,3.40
2019-04-22T17:38:11.605Z,4.57
2019-04-22T17:40:49.195Z,2.97
2019-04-22T17:43:36.063Z,4.73
2019-04-22T17:45:57.993Z,2.97
2019-04-22T17:48:44.875Z,3.97
2019-04-22T17:51:22.618Z,3.77
2019-04-22T17:53:51.568Z,3.20
2019-04-22T17:56:13.802Z,8.03
2019-04-22T17:58:46.403Z,3.33
2019-04-22T18:01:17.841Z,4.50
2019-04-22T18:03:35.057Z,2.50
2019-04-22T18:06:03.316Z,4.13
2019-04-22T18:08:45.237Z,3.33
2019-04-22T18:11:31.993Z,4.40
2019-04-22T18:13:51.635Z,2.97
2019-04-22T18:16:27.586Z,4.20
2019-04-22T18:18:54.366Z,3.60
2019-04-22T18:21:20.736Z,3.17
2019-04-22T18:23:43.653Z,2.67
2019-04-22T18:26:20.481Z,3.53
2019-04-22T18:28:55.822Z,2.53
2019-04-22T18:31:17.400Z,3.70
2019-04-22T18:33:49.943Z,3.13
2019-04-22T18:36:27.997Z,4.27
2019-04-22T18:39:04.935Z,4.27
2019-04-22T18:41:30.389Z,2.73
2019-04-22T18:44:06.295Z,3.07
2019-04-22T18:46:34.858Z,4.23
2019-04-22T18:49:05.695Z,2.70
2019-04-22T18:51:40.271Z,5.13
2019-04-22T18:54:13.553Z,2.50
2019-04-22T18:56:46.599Z,3.80
2019-04-22T18:59:09.637Z,2.63
2019-04-22T19:01:28.452Z,3.23
2019-04-22T19:04:05.835Z,2.93
2019-04-22T19:06:53.579Z,2.80
2019-04-22T19:09:23.897Z,2.70
2019-04-22T19:12:01.812Z,6.83
2019-04-22T19:14:24.200Z,2.50
2019-04-22T19:16:55.880Z,2.47
2019-04-22T19:21:56.135Z,2.97
2019-04-22T19:24:19.474Z,4.60
2019-04-22T19:26:58.695Z,4.20
2019-04-22T19:29:25.960Z,2.27
2019-04-22T19:31:56.972Z,3.47
2019-04-22T19:34:28.859Z,2.63
2019-04-22T19:36:59.347Z,5.13
2019-04-22T19:39:26.205Z,3.73
2019-04-22T19:42:08.228Z,4.13
2019-04-22T19:44:36.381Z,3.57
2019-04-22T19:47:19.582Z,2.60
2019-04-22T19:49:38.353Z,3.83
2019-04-22T19:54:34.152Z,3.20
2019-04-22T19:56:59.123Z,3.53
2019-04-22T19:59:32.370Z,3.57
2019-04-22T20:02:10.372Z,2.83
2019-04-22T20:04:52.691Z,3.57
2019-04-22T20:07:24.792Z,3.20
2019-04-22T20:09:55.167Z,4.57
2019-04-22T20:12:21.347Z,6.80
2019-04-22T20:14:54.493Z,3.33
2019-04-22T20:17:26.741Z,4.43
2019-04-22T20:20:15.901Z,6.80
2019-04-22T20:22:25.978Z,3.63
2019-04-22T20:24:47.481Z,3.73
2019-04-22T20:27:30.338Z,5.37
2019-04-22T20:29:58.041Z,3.97
2019-04-22T20:32:26.411Z,5.30
2019-04-22T20:35:02.544Z,4.80
2019-04-22T20:37:35.472Z,10.00
2019-04-22T20:40:04.077Z,4.37
2019-04-22T20:45:03.929Z,5.07
2019-04-22T20:47:30.225Z,5.03
2019-04-22T20:50:05.321Z,9.37
2019-04-22T20:52:39.432Z,9.33
2019-04-22T20:55:02.577Z,5.13
2019-04-22T20:57:40.440Z,5.63
2019-04-22T21:00:02.068Z,4.50
2019-04-22T21:02:32.407Z,5.17
2019-04-22T21:04:57.098Z,4.10
2019-04-22T21:07:31.459Z,3.97
2019-04-22T21:10:10.545Z,6.03
2019-04-22T21:12:34.230Z,5.83
2019-04-22T21:15:12.490Z,6.20
2019-04-22T21:17:39.010Z,4.37
2019-04-22T21:20:17.356Z,3.87
2019-04-22T21:22:44.780Z,3.93
2019-04-22T21:25:11.525Z,4.93
2019-04-22T21:27:52.566Z,5.47
2019-04-22T21:30:10.681Z,4.83
2019-04-22T21:32:44.924Z,2.43
2019-04-22T21:35:29.207Z,6.33
2019-04-22T21:37:57.144Z,5.70
2019-04-22T21:40:20.161Z,6.77
2019-04-22T21:42:54.174Z,6.63
2019-04-22T21:45:14.630Z,5.77
2019-04-22T21:47:58.802Z,6.47
2019-04-22T21:52:56.827Z,5.67
2019-04-22T21:55:23.851Z,3.97
2019-04-22T21:58:05.348Z,5.03
2019-04-22T22:00:41.177Z,6.47
2019-04-22T22:03:06.554Z,5.63
2019-04-22T22:05:27.132Z,5.13
2019-04-22T22:07:53.501Z,5.13
2019-04-22T22:10:39.805Z,5.33
2019-04-22T22:13:11.382Z,7.03
2019-04-22T22:15:35.075Z,4.10
2019-04-22T22:18:08.712Z,5.53
2019-04-22T22:20:40.955Z,4.17
2019-04-22T22:23:22.254Z,4.43
2019-04-22T22:25:40.112Z,6.30
2019-04-22T22:28:29.934Z,6.13
2019-04-22T22:30:58.263Z,6.50
2019-04-22T22:33:22.128Z,4.90
2019-04-22T22:35:42.435Z,3.87
2019-04-22T22:38:13.520Z,5.00
2019-04-22T22:40:30.355Z,5.33
2019-04-22T22:42:59.490Z,11.43
2019-04-22T22:45:37.120Z,4.03
2019-04-22T22:50:47.750Z,5.10
2019-04-22T22:53:29.095Z,6.90
2019-04-22T22:55:53.231Z,5.40
2019-04-22T22:58:28.045Z,6.37
2019-04-22T23:00:52.739Z,5.20
2019-04-22T23:03:46.056Z,3.77
2019-04-22T23:05:59.152Z,6.80
2019-04-22T23:08:49.480Z,6.23
2019-04-22T23:13:33.914Z,4.97
2019-04-22T23:15:50.209Z,4.87
2019-04-22T23:18:10.086Z,5.80
2019-04-22T23:20:45.565Z,4.33
2019-04-22T23:23:33.281Z,4.87
2019-04-22T23:26:06.854Z,6.17
2019-04-22T23:28:40.031Z,4.57
2019-04-22T23:31:14.068Z,5.73
2019-04-22T23:33:54.655Z,2.97
2019-04-22T23:36:25.142Z,5.37
2019-04-22T23:39:10.855Z,5.33
2019-04-22T23:42:41.780Z,3.80
2019-04-22T23:44:13.877Z,5.00
2019-04-22T23:46:42.631Z,5.50
2019-04-22T23:49:11.692Z,6.17
2019-04-22T23:51:55.542Z,4.87
2019-04-22T23:54:25.731Z,3.63
2019-04-22T23:56:43.222Z,5.40
2019-04-22T23:59:37.936Z,3.70
